sensor_id;sensor_type;location;lat;lon;timestamp;P1;durP1;ratioP1;P2;durP2;ratioP2
3433;SDS011;1730;41.932;25.548;2023-06-10T00:02:10;6.97;;;6.27;;
3433;SDS011;1730;41.932;25.548;2023-06-10T00:04:36;9.50;;;5.80;;
3433;SDS011;1730;41.932;25.548;2023-06-10T00:07:05;6.27;;;5.40;;
3433;SDS011;1730;41.932;25.548;2023-06-10T00:09:37;5.97;;;5.43;;
3433;SDS011;1730;41.932;25.548;2023-06-10T00:12:04;6.90;;;5.40;;
3433;SDS011;1730;41.932;25.548;2023-06-10T00:14:30;6.23;;;5.80;;
3433;SDS011;1730;41.932;25.548;2023-06-10T00:16:55;9.63;;;5.60;;
3433;SDS011;1730;41.932;25.548;2023-06-10T00:19:22;6.20;;;5.60;;
3433;SDS011;1730;41.932;25.548;2023-06-10T00:21:51;5.33;;;4.53;;
3433;SDS011;1730;41.932;25.548;2023-06-10T00:24:17;5.83;;;5.30;;
3433;SDS011;1730;41.932;25.548;2023-06-10T00:26:43;5.60;;;5.20;;
3433;SDS011;1730;41.932;25.548;2023-06-10T00:29:09;8.03;;;5.00;;
3433;SDS011;1730;41.932;25.548;2023-06-10T00:31:35;5.23;;;4.90;;
3433;SDS011;1730;41.932;25.548;2023-06-10T00:34:02;7.00;;;5.47;;
3433;SDS011;1730;41.932;25.548;2023-06-10T00:36:28;10.20;;;5.87;;
3433;SDS011;1730;41.932;25.548;2023-06-10T00:38:53;11.27;;;5.50;;
3433;SDS011;1730;41.932;25.548;2023-06-10T00:41:19;9.60;;;5.00;;
3433;SDS011;1730;41.932;25.548;2023-06-10T00:43:45;6.47;;;5.40;;
3433;SDS011;1730;41.932;25.548;2023-06-10T00:46:11;6.20;;;5.30;;
3433;SDS011;1730;41.932;25.548;2023-06-10T00:48:37;5.60;;;5.07;;
3433;SDS011;1730;41.932;25.548;2023-06-10T00:51:07;7.23;;;5.13;;
3433;SDS011;1730;41.932;25.548;2023-06-10T00:53:39;5.50;;;5.10;;
3433;SDS011;1730;41.932;25.548;2023-06-10T00:56:06;5.53;;;5.10;;
3433;SDS011;1730;41.932;25.548;2023-06-10T00:58:31;5.40;;;5.00;;
3433;SDS011;1730;41.932;25.548;2023-06-10T01:00:57;5.80;;;5.30;;
3433;SDS011;1730;41.932;25.548;2023-06-10T01:03:23;5.60;;;4.60;;
3433;SDS011;1730;41.932;25.548;2023-06-10T01:05:50;20.90;;;5.43;;
3433;SDS011;1730;41.932;25.548;2023-06-10T01:11:13;5.77;;;5.27;;
3433;SDS011;1730;41.932;25.548;2023-06-10T01:13:44;4.60;;;4.30;;
3433;SDS011;1730;41.932;25.548;2023-06-10T01:16:11;6.30;;;5.80;;
3433;SDS011;1730;41.932;25.548;2023-06-10T01:18:37;5.93;;;5.30;;
3433;SDS011;1730;41.932;25.548;2023-06-10T01:21:03;6.93;;;4.77;;
3433;SDS011;1730;41.932;25.548;2023-06-10T01:23:29;5.60;;;5.20;;
3433;SDS011;1730;41.932;25.548;2023-06-10T01:26:05;5.53;;;5.13;;
3433;SDS011;1730;41.932;25.548;2023-06-10T01:28:47;6.77;;;5.83;;
3433;SDS011;1730;41.932;25.548;2023-06-10T01:34:17;5.90;;;5.00;;
3433;SDS011;1730;41.932;25.548;2023-06-10T01:36:47;10.07;;;5.77;;
3433;SDS011;1730;41.932;25.548;2023-06-10T01:39:14;5.20;;;4.80;;
3433;SDS011;1730;41.932;25.548;2023-06-10T01:41:42;6.20;;;5.50;;
3433;SDS011;1730;41.932;25.548;2023-06-10T01:44:08;5.70;;;5.20;;
3433;SDS011;1730;41.932;25.548;2023-06-10T01:46:34;6.73;;;4.40;;
3433;SDS011;1730;41.932;25.548;2023-06-10T01:48:59;5.30;;;4.63;;
3433;SDS011;1730;41.932;25.548;2023-06-10T01:51:25;8.77;;;4.47;;
3433;SDS011;1730;41.932;25.548;2023-06-10T01:53:50;6.50;;;5.80;;
3433;SDS011;1730;41.932;25.548;2023-06-10T01:56:16;7.93;;;5.07;;
3433;SDS011;1730;41.932;25.548;2023-06-10T01:58:44;5.60;;;5.20;;
3433;SDS011;1730;41.932;25.548;2023-06-10T02:01:10;5.50;;;4.77;;
3433;SDS011;1730;41.932;25.548;2023-06-10T02:03:36;5.23;;;4.83;;
3433;SDS011;1730;41.932;25.548;2023-06-10T02:06:02;6.73;;;5.37;;
3433;SDS011;1730;41.932;25.548;2023-06-10T02:08:27;5.80;;;5.40;;
3433;SDS011;1730;41.932;25.548;2023-06-10T02:10:53;5.67;;;5.17;;
3433;SDS011;1730;41.932;25.548;2023-06-10T02:13:19;6.83;;;5.50;;
3433;SDS011;1730;41.932;25.548;2023-06-10T02:15:44;5.80;;;5.40;;
3433;SDS011;1730;41.932;25.548;2023-06-10T02:18:10;6.23;;;5.63;;
3433;SDS011;1730;41.932;25.548;2023-06-10T02:20:37;6.00;;;5.40;;
3433;SDS011;1730;41.932;25.548;2023-06-10T02:23:03;10.13;;;5.50;;
3433;SDS011;1730;41.932;25.548;2023-06-10T02:25:29;5.37;;;4.97;;
3433;SDS011;1730;41.932;25.548;2023-06-10T02:27:54;6.23;;;5.73;;
3433;SDS011;1730;41.932;25.548;2023-06-10T02:30:20;9.40;;;5.40;;
3433;SDS011;1730;41.932;25.548;2023-06-10T02:32:46;8.10;;;5.30;;
3433;SDS011;1730;41.932;25.548;2023-06-10T02:35:12;7.00;;;5.90;;
3433;SDS011;1730;41.932;25.548;2023-06-10T02:37:39;8.00;;;4.80;;
3433;SDS011;1730;41.932;25.548;2023-06-10T02:40:05;9.93;;;5.70;;
3433;SDS011;1730;41.932;25.548;2023-06-10T02:42:32;5.77;;;4.83;;
3433;SDS011;1730;41.932;25.548;2023-06-10T02:44:57;8.67;;;5.80;;
3433;SDS011;1730;41.932;25.548;2023-06-10T02:47:24;7.00;;;6.23;;
3433;SDS011;1730;41.932;25.548;2023-06-10T02:49:50;5.60;;;5.07;;
3433;SDS011;1730;41.932;25.548;2023-06-10T02:52:15;6.63;;;5.80;;
3433;SDS011;1730;41.932;25.548;2023-06-10T02:54:41;5.50;;;5.00;;
3433;SDS011;1730;41.932;25.548;2023-06-10T02:57:06;7.30;;;5.20;;
3433;SDS011;1730;41.932;25.548;2023-06-10T02:59:32;5.93;;;5.33;;
3433;SDS011;1730;41.932;25.548;2023-06-10T03:01:58;5.70;;;5.30;;
3433;SDS011;1730;41.932;25.548;2023-06-10T03:04:26;7.60;;;6.07;;
3433;SDS011;1730;41.932;25.548;2023-06-10T03:06:54;9.20;;;5.80;;
3433;SDS011;1730;41.932;25.548;2023-06-10T03:09:20;12.83;;;5.67;;
3433;SDS011;1730;41.932;25.548;2023-06-10T03:11:46;7.17;;;6.47;;
3433;SDS011;1730;41.932;25.548;2023-06-10T03:14:11;6.20;;;5.70;;
3433;SDS011;1730;41.932;25.548;2023-06-10T03:16:37;9.37;;;5.37;;
3433;SDS011;1730;41.932;25.548;2023-06-10T03:19:06;6.80;;;5.07;;
3433;SDS011;1730;41.932;25.548;2023-06-10T03:21:33;5.83;;;5.33;;
3433;SDS011;1730;41.932;25.548;2023-06-10T03:24:02;7.43;;;6.50;;
3433;SDS011;1730;41.932;25.548;2023-06-10T03:26:28;6.13;;;5.73;;
3433;SDS011;1730;41.932;25.548;2023-06-10T03:28:54;5.73;;;5.33;;
3433;SDS011;1730;41.932;25.548;2023-06-10T03:31:19;6.13;;;5.70;;
3433;SDS011;1730;41.932;25.548;2023-06-10T03:33:45;5.83;;;5.33;;
3433;SDS011;1730;41.932;25.548;2023-06-10T03:36:10;8.50;;;6.20;;
3433;SDS011;1730;41.932;25.548;2023-06-10T03:38:36;6.50;;;5.70;;
3433;SDS011;1730;41.932;25.548;2023-06-10T03:41:02;7.13;;;5.00;;
3433;SDS011;1730;41.932;25.548;2023-06-10T03:43:27;6.23;;;5.63;;
3433;SDS011;1730;41.932;25.548;2023-06-10T03:45:53;6.23;;;5.13;;
3433;SDS011;1730;41.932;25.548;2023-06-10T03:48:19;5.83;;;5.10;;
3433;SDS011;1730;41.932;25.548;2023-06-10T03:50:45;7.17;;;6.37;;
3433;SDS011;1730;41.932;25.548;2023-06-10T03:53:12;6.17;;;5.67;;
3433;SDS011;1730;41.932;25.548;2023-06-10T03:55:38;7.30;;;5.47;;
3433;SDS011;1730;41.932;25.548;2023-06-10T03:58:03;6.13;;;5.57;;
3433;SDS011;1730;41.932;25.548;2023-06-10T04:00:29;7.80;;;5.93;;
3433;SDS011;1730;41.932;25.548;2023-06-10T04:02:55;6.57;;;5.50;;
3433;SDS011;1730;41.932;25.548;2023-06-10T04:05:23;5.97;;;5.47;;
3433;SDS011;1730;41.932;25.548;2023-06-10T04:07:49;6.70;;;5.70;;
3433;SDS011;1730;41.932;25.548;2023-06-10T04:10:15;7.50;;;6.47;;
3433;SDS011;1730;41.932;25.548;2023-06-10T04:12:41;6.13;;;5.53;;
3433;SDS011;1730;41.932;25.548;2023-06-10T04:15:07;14.77;;;6.17;;
3433;SDS011;1730;41.932;25.548;2023-06-10T04:17:33;7.20;;;6.40;;
3433;SDS011;1730;41.932;25.548;2023-06-10T04:19:59;9.90;;;6.00;;
3433;SDS011;1730;41.932;25.548;2023-06-10T04:22:27;7.93;;;7.23;;
3433;SDS011;1730;41.932;25.548;2023-06-10T04:24:52;6.80;;;6.10;;
3433;SDS011;1730;41.932;25.548;2023-06-10T04:27:18;14.10;;;7.03;;
3433;SDS011;1730;41.932;25.548;2023-06-10T04:29:44;6.97;;;6.33;;
3433;SDS011;1730;41.932;25.548;2023-06-10T04:32:09;8.10;;;6.10;;
3433;SDS011;1730;41.932;25.548;2023-06-10T04:34:35;15.33;;;6.40;;
3433;SDS011;1730;41.932;25.548;2023-06-10T04:37:01;7.00;;;6.30;;
3433;SDS011;1730;41.932;25.548;2023-06-10T04:39:27;9.60;;;6.20;;
3433;SDS011;1730;41.932;25.548;2023-06-10T04:41:52;10.20;;;6.40;;
3433;SDS011;1730;41.932;25.548;2023-06-10T04:44:17;7.20;;;6.50;;
3433;SDS011;1730;41.932;25.548;2023-06-10T04:46:43;6.87;;;6.20;;
3433;SDS011;1730;41.932;25.548;2023-06-10T04:49:09;7.63;;;6.90;;
3433;SDS011;1730;41.932;25.548;2023-06-10T04:51:35;6.97;;;6.37;;
3433;SDS011;1730;41.932;25.548;2023-06-10T04:54:01;7.63;;;6.90;;
3433;SDS011;1730;41.932;25.548;2023-06-10T04:56:29;7.83;;;7.10;;
3433;SDS011;1730;41.932;25.548;2023-06-10T04:58:56;9.07;;;6.53;;
3433;SDS011;1730;41.932;25.548;2023-06-10T05:01:22;9.33;;;6.60;;
3433;SDS011;1730;41.932;25.548;2023-06-10T05:03:47;6.93;;;6.10;;
3433;SDS011;1730;41.932;25.548;2023-06-10T05:06:13;7.57;;;6.97;;
3433;SDS011;1730;41.932;25.548;2023-06-10T05:08:38;6.97;;;6.40;;
3433;SDS011;1730;41.932;25.548;2023-06-10T05:11:04;7.67;;;7.07;;
3433;SDS011;1730;41.932;25.548;2023-06-10T05:13:30;7.07;;;6.43;;
3433;SDS011;1730;41.932;25.548;2023-06-10T05:15:55;7.80;;;7.13;;
3433;SDS011;1730;41.932;25.548;2023-06-10T05:18:21;7.10;;;6.60;;
3433;SDS011;1730;41.932;25.548;2023-06-10T05:20:46;7.80;;;7.30;;
3433;SDS011;1730;41.932;25.548;2023-06-10T05:23:12;7.47;;;6.77;;
3433;SDS011;1730;41.932;25.548;2023-06-10T05:25:37;9.53;;;7.67;;
3433;SDS011;1730;41.932;25.548;2023-06-10T05:28:03;7.97;;;7.27;;
3433;SDS011;1730;41.932;25.548;2023-06-10T05:30:28;7.43;;;6.77;;
3433;SDS011;1730;41.932;25.548;2023-06-10T05:32:54;6.70;;;6.10;;
3433;SDS011;1730;41.932;25.548;2023-06-10T05:35:21;8.43;;;6.57;;
3433;SDS011;1730;41.932;25.548;2023-06-10T05:37:47;7.43;;;5.70;;
3433;SDS011;1730;41.932;25.548;2023-06-10T05:40:13;13.47;;;6.43;;
3433;SDS011;1730;41.932;25.548;2023-06-10T05:42:38;14.70;;;5.77;;
3433;SDS011;1730;41.932;25.548;2023-06-10T05:45:05;6.33;;;5.73;;
3433;SDS011;1730;41.932;25.548;2023-06-10T05:47:32;5.73;;;4.90;;
3433;SDS011;1730;41.932;25.548;2023-06-10T05:49:57;4.53;;;4.13;;
3433;SDS011;1730;41.932;25.548;2023-06-10T05:52:23;4.10;;;3.70;;
3433;SDS011;1730;41.932;25.548;2023-06-10T05:54:48;4.53;;;3.80;;
3433;SDS011;1730;41.932;25.548;2023-06-10T05:57:15;4.60;;;4.20;;
3433;SDS011;1730;41.932;25.548;2023-06-10T05:59:40;3.93;;;3.63;;
3433;SDS011;1730;41.932;25.548;2023-06-10T06:02:06;5.20;;;4.70;;
3433;SDS011;1730;41.932;25.548;2023-06-10T06:04:31;6.00;;;5.10;;
3433;SDS011;1730;41.932;25.548;2023-06-10T06:06:57;4.30;;;3.90;;
3433;SDS011;1730;41.932;25.548;2023-06-10T06:09:22;4.77;;;3.23;;
3433;SDS011;1730;41.932;25.548;2023-06-10T06:11:48;5.10;;;4.13;;
3433;SDS011;1730;41.932;25.548;2023-06-10T06:14:13;4.10;;;3.80;;
3433;SDS011;1730;41.932;25.548;2023-06-10T06:16:39;4.20;;;3.90;;
3433;SDS011;1730;41.932;25.548;2023-06-10T06:19:05;8.30;;;3.90;;
3433;SDS011;1730;41.932;25.548;2023-06-10T06:21:30;5.50;;;4.60;;
3433;SDS011;1730;41.932;25.548;2023-06-10T06:23:55;13.60;;;4.47;;
3433;SDS011;1730;41.932;25.548;2023-06-10T06:26:21;4.00;;;3.80;;
3433;SDS011;1730;41.932;25.548;2023-06-10T06:28:47;5.23;;;4.83;;
3433;SDS011;1730;41.932;25.548;2023-06-10T06:31:12;4.67;;;4.27;;
3433;SDS011;1730;41.932;25.548;2023-06-10T06:33:38;5.50;;;3.90;;
3433;SDS011;1730;41.932;25.548;2023-06-10T06:36:03;4.80;;;4.37;;
3433;SDS011;1730;41.932;25.548;2023-06-10T06:38:29;7.20;;;4.63;;
3433;SDS011;1730;41.932;25.548;2023-06-10T06:40:54;8.70;;;4.00;;
3433;SDS011;1730;41.932;25.548;2023-06-10T06:43:20;7.40;;;4.20;;
3433;SDS011;1730;41.932;25.548;2023-06-10T06:45:45;4.80;;;4.00;;
3433;SDS011;1730;41.932;25.548;2023-06-10T06:48:11;5.93;;;4.43;;
3433;SDS011;1730;41.932;25.548;2023-06-10T06:50:37;6.63;;;4.17;;
3433;SDS011;1730;41.932;25.548;2023-06-10T06:53:03;4.63;;;4.10;;
3433;SDS011;1730;41.932;25.548;2023-06-10T06:55:29;4.50;;;4.17;;
3433;SDS011;1730;41.932;25.548;2023-06-10T06:57:54;5.20;;;4.80;;
3433;SDS011;1730;41.932;25.548;2023-06-10T07:00:20;4.70;;;4.30;;
3433;SDS011;1730;41.932;25.548;2023-06-10T07:02:46;4.80;;;4.27;;
3433;SDS011;1730;41.932;25.548;2023-06-10T07:05:12;4.70;;;4.30;;
3433;SDS011;1730;41.932;25.548;2023-06-10T07:07:37;5.13;;;3.83;;
3433;SDS011;1730;41.932;25.548;2023-06-10T07:10:03;4.50;;;4.10;;
3433;SDS011;1730;41.932;25.548;2023-06-10T07:12:29;4.50;;;4.10;;
3433;SDS011;1730;41.932;25.548;2023-06-10T07:14:55;5.07;;;3.97;;
3433;SDS011;1730;41.932;25.548;2023-06-10T07:17:20;4.47;;;4.07;;
3433;SDS011;1730;41.932;25.548;2023-06-10T07:19:46;4.67;;;4.37;;
3433;SDS011;1730;41.932;25.548;2023-06-10T07:22:11;6.17;;;4.27;;
3433;SDS011;1730;41.932;25.548;2023-06-10T07:24:37;4.53;;;4.13;;
3433;SDS011;1730;41.932;25.548;2023-06-10T07:27:02;4.80;;;4.40;;
3433;SDS011;1730;41.932;25.548;2023-06-10T07:29:28;4.80;;;4.50;;
3433;SDS011;1730;41.932;25.548;2023-06-10T07:31:53;4.40;;;4.10;;
3433;SDS011;1730;41.932;25.548;2023-06-10T07:34:19;4.30;;;4.00;;
3433;SDS011;1730;41.932;25.548;2023-06-10T07:36:45;10.47;;;4.30;;
3433;SDS011;1730;41.932;25.548;2023-06-10T07:39:10;15.90;;;4.80;;
3433;SDS011;1730;41.932;25.548;2023-06-10T07:41:37;5.10;;;4.40;;
3433;SDS011;1730;41.932;25.548;2023-06-10T07:44:02;4.90;;;4.07;;
3433;SDS011;1730;41.932;25.548;2023-06-10T07:46:28;11.07;;;4.40;;
3433;SDS011;1730;41.932;25.548;2023-06-10T07:48:53;4.60;;;4.20;;
3433;SDS011;1730;41.932;25.548;2023-06-10T07:51:20;4.33;;;4.07;;
3433;SDS011;1730;41.932;25.548;2023-06-10T07:53:48;6.50;;;4.50;;
3433;SDS011;1730;41.932;25.548;2023-06-10T07:56:13;9.07;;;4.47;;
3433;SDS011;1730;41.932;25.548;2023-06-10T07:58:39;5.23;;;4.80;;
3433;SDS011;1730;41.932;25.548;2023-06-10T08:01:04;7.50;;;5.63;;
3433;SDS011;1730;41.932;25.548;2023-06-10T08:03:30;9.30;;;5.20;;
3433;SDS011;1730;41.932;25.548;2023-06-10T08:05:55;5.17;;;4.70;;
3433;SDS011;1730;41.932;25.548;2023-06-10T08:08:23;6.77;;;5.57;;
3433;SDS011;1730;41.932;25.548;2023-06-10T08:10:49;6.13;;;5.73;;
3433;SDS011;1730;41.932;25.548;2023-06-10T08:13:15;6.57;;;5.10;;
3433;SDS011;1730;41.932;25.548;2023-06-10T08:15:40;4.87;;;4.57;;
3433;SDS011;1730;41.932;25.548;2023-06-10T08:18:06;7.90;;;4.20;;
3433;SDS011;1730;41.932;25.548;2023-06-10T08:20:31;5.47;;;4.33;;
3433;SDS011;1730;41.932;25.548;2023-06-10T08:22:57;4.60;;;4.30;;
3433;SDS011;1730;41.932;25.548;2023-06-10T08:25:23;4.90;;;4.53;;
3433;SDS011;1730;41.932;25.548;2023-06-10T08:27:48;5.00;;;4.27;;
3433;SDS011;1730;41.932;25.548;2023-06-10T08:30:16;7.43;;;4.00;;
3433;SDS011;1730;41.932;25.548;2023-06-10T08:32:41;4.60;;;4.30;;
3433;SDS011;1730;41.932;25.548;2023-06-10T08:35:07;8.53;;;3.90;;
3433;SDS011;1730;41.932;25.548;2023-06-10T08:37:33;4.10;;;3.60;;
3433;SDS011;1730;41.932;25.548;2023-06-10T08:39:59;6.30;;;4.13;;
3433;SDS011;1730;41.932;25.548;2023-06-10T08:42:27;4.80;;;4.40;;
3433;SDS011;1730;41.932;25.548;2023-06-10T08:44:54;4.90;;;3.77;;
3433;SDS011;1730;41.932;25.548;2023-06-10T08:47:22;4.90;;;4.43;;
3433;SDS011;1730;41.932;25.548;2023-06-10T08:49:48;5.00;;;4.47;;
3433;SDS011;1730;41.932;25.548;2023-06-10T08:52:15;5.20;;;4.80;;
3433;SDS011;1730;41.932;25.548;2023-06-10T08:54:43;5.10;;;4.70;;
3433;SDS011;1730;41.932;25.548;2023-06-10T08:57:14;4.70;;;4.40;;
3433;SDS011;1730;41.932;25.548;2023-06-10T08:59:40;5.80;;;5.20;;
3433;SDS011;1730;41.932;25.548;2023-06-10T09:02:06;9.77;;;4.70;;
3433;SDS011;1730;41.932;25.548;2023-06-10T09:04:33;5.37;;;4.97;;
3433;SDS011;1730;41.932;25.548;2023-06-10T09:07:02;5.13;;;4.70;;
3433;SDS011;1730;41.932;25.548;2023-06-10T09:09:27;6.57;;;4.70;;
3433;SDS011;1730;41.932;25.548;2023-06-10T09:11:55;4.80;;;4.40;;
3433;SDS011;1730;41.932;25.548;2023-06-10T09:14:21;6.10;;;4.70;;
3433;SDS011;1730;41.932;25.548;2023-06-10T09:16:46;5.67;;;5.00;;
3433;SDS011;1730;41.932;25.548;2023-06-10T09:19:13;4.93;;;4.60;;
3433;SDS011;1730;41.932;25.548;2023-06-10T09:21:41;5.00;;;4.70;;
3433;SDS011;1730;41.932;25.548;2023-06-10T09:24:06;5.63;;;4.40;;
3433;SDS011;1730;41.932;25.548;2023-06-10T09:26:32;5.80;;;4.00;;
3433;SDS011;1730;41.932;25.548;2023-06-10T09:29:04;4.77;;;4.37;;
3433;SDS011;1730;41.932;25.548;2023-06-10T09:31:31;4.83;;;4.33;;
3433;SDS011;1730;41.932;25.548;2023-06-10T09:34:09;7.73;;;3.50;;
3433;SDS011;1730;41.932;25.548;2023-06-10T09:36:37;5.40;;;3.90;;
3433;SDS011;1730;41.932;25.548;2023-06-10T09:39:03;4.00;;;3.80;;
3433;SDS011;1730;41.932;25.548;2023-06-10T09:41:33;5.77;;;3.80;;
3433;SDS011;1730;41.932;25.548;2023-06-10T09:44:12;5.43;;;3.73;;
3433;SDS011;1730;41.932;25.548;2023-06-10T09:46:46;3.80;;;3.50;;
3433;SDS011;1730;41.932;25.548;2023-06-10T09:49:13;8.03;;;3.73;;
3433;SDS011;1730;41.932;25.548;2023-06-10T09:52:00;11.00;;;3.97;;
3433;SDS011;1730;41.932;25.548;2023-06-10T09:54:24;3.97;;;3.60;;
3433;SDS011;1730;41.932;25.548;2023-06-10T09:56:57;5.47;;;3.60;;
3433;SDS011;1730;41.932;25.548;2023-06-10T09:59:32;8.03;;;3.80;;
3433;SDS011;1730;41.932;25.548;2023-06-10T10:01:59;3.60;;;3.30;;
3433;SDS011;1730;41.932;25.548;2023-06-10T10:04:26;12.47;;;3.63;;
3433;SDS011;1730;41.932;25.548;2023-06-10T10:06:52;5.70;;;3.50;;
3433;SDS011;1730;41.932;25.548;2023-06-10T10:09:17;4.43;;;3.70;;
3433;SDS011;1730;41.932;25.548;2023-06-10T10:11:44;3.97;;;3.67;;
3433;SDS011;1730;41.932;25.548;2023-06-10T10:14:10;3.50;;;3.20;;
3433;SDS011;1730;41.932;25.548;2023-06-10T10:16:40;3.30;;;3.10;;
3433;SDS011;1730;41.932;25.548;2023-06-10T10:19:09;4.23;;;3.53;;
3433;SDS011;1730;41.932;25.548;2023-06-10T10:21:43;3.53;;;3.33;;
3433;SDS011;1730;41.932;25.548;2023-06-10T10:24:17;4.13;;;3.53;;
3433;SDS011;1730;41.932;25.548;2023-06-10T10:26:46;4.07;;;3.77;;
3433;SDS011;1730;41.932;25.548;2023-06-10T10:29:19;4.30;;;4.00;;
3433;SDS011;1730;41.932;25.548;2023-06-10T10:31:50;4.00;;;3.60;;
3433;SDS011;1730;41.932;25.548;2023-06-10T10:34:24;4.20;;;3.80;;
3433;SDS011;1730;41.932;25.548;2023-06-10T10:36:58;8.90;;;3.60;;
3433;SDS011;1730;41.932;25.548;2023-06-10T10:39:24;4.80;;;3.30;;
3433;SDS011;1730;41.932;25.548;2023-06-10T10:41:53;15.00;;;4.73;;
3433;SDS011;1730;41.932;25.548;2023-06-10T10:44:20;4.10;;;3.90;;
3433;SDS011;1730;41.932;25.548;2023-06-10T10:46:49;4.17;;;3.97;;
3433;SDS011;1730;41.932;25.548;2023-06-10T10:49:16;4.30;;;3.20;;
3433;SDS011;1730;41.932;25.548;2023-06-10T10:51:56;4.53;;;4.17;;
3433;SDS011;1730;41.932;25.548;2023-06-10T10:54:32;7.97;;;3.53;;
3433;SDS011;1730;41.932;25.548;2023-06-10T10:59:44;4.47;;;4.03;;
3433;SDS011;1730;41.932;25.548;2023-06-10T11:02:18;6.80;;;4.13;;
3433;SDS011;1730;41.932;25.548;2023-06-10T11:04:58;8.80;;;3.80;;
3433;SDS011;1730;41.932;25.548;2023-06-10T11:07:25;4.20;;;3.80;;
3433;SDS011;1730;41.932;25.548;2023-06-10T11:10:02;4.67;;;4.20;;
3433;SDS011;1730;41.932;25.548;2023-06-10T11:15:18;3.83;;;3.53;;
3433;SDS011;1730;41.932;25.548;2023-06-10T11:20:41;4.50;;;4.20;;
3433;SDS011;1730;41.932;25.548;2023-06-10T11:23:58;4.73;;;4.17;;
3433;SDS011;1730;41.932;25.548;2023-06-10T11:29:02;3.97;;;3.77;;
3433;SDS011;1730;41.932;25.548;2023-06-10T11:31:49;4.53;;;3.87;;
3433;SDS011;1730;41.932;25.548;2023-06-10T11:34:20;5.40;;;3.60;;
3433;SDS011;1730;41.932;25.548;2023-06-10T11:36:52;4.10;;;3.77;;
3433;SDS011;1730;41.932;25.548;2023-06-10T11:39:19;4.20;;;3.90;;
3433;SDS011;1730;41.932;25.548;2023-06-10T11:41:45;4.47;;;4.17;;
3433;SDS011;1730;41.932;25.548;2023-06-10T11:44:12;3.53;;;3.33;;
3433;SDS011;1730;41.932;25.548;2023-06-10T11:46:38;4.20;;;3.90;;
3433;SDS011;1730;41.932;25.548;2023-06-10T11:49:05;3.33;;;3.13;;
3433;SDS011;1730;41.932;25.548;2023-06-10T11:51:37;4.30;;;3.90;;
3433;SDS011;1730;41.932;25.548;2023-06-10T11:54:04;4.23;;;3.50;;
3433;SDS011;1730;41.932;25.548;2023-06-10T11:56:30;9.57;;;3.60;;
3433;SDS011;1730;41.932;25.548;2023-06-10T11:58:58;4.57;;;4.17;;
3433;SDS011;1730;41.932;25.548;2023-06-10T12:01:43;4.30;;;3.60;;
3433;SDS011;1730;41.932;25.548;2023-06-10T12:04:10;8.27;;;3.50;;
3433;SDS011;1730;41.932;25.548;2023-06-10T12:06:38;7.57;;;4.07;;
3433;SDS011;1730;41.932;25.548;2023-06-10T12:09:05;6.40;;;4.13;;
3433;SDS011;1730;41.932;25.548;2023-06-10T12:11:32;4.83;;;3.60;;
3433;SDS011;1730;41.932;25.548;2023-06-10T12:13:58;4.83;;;4.17;;
3433;SDS011;1730;41.932;25.548;2023-06-10T12:16:23;16.80;;;4.57;;
3433;SDS011;1730;41.932;25.548;2023-06-10T12:18:49;6.53;;;4.23;;
3433;SDS011;1730;41.932;25.548;2023-06-10T12:21:23;5.60;;;4.20;;
3433;SDS011;1730;41.932;25.548;2023-06-10T12:24:02;6.23;;;4.60;;
3433;SDS011;1730;41.932;25.548;2023-06-10T12:29:01;4.10;;;3.80;;
3433;SDS011;1730;41.932;25.548;2023-06-10T12:31:57;8.30;;;4.90;;
3433;SDS011;1730;41.932;25.548;2023-06-10T12:37:02;4.53;;;4.13;;
3433;SDS011;1730;41.932;25.548;2023-06-10T12:39:29;4.70;;;4.30;;
3433;SDS011;1730;41.932;25.548;2023-06-10T12:41:58;4.13;;;3.83;;
3433;SDS011;1730;41.932;25.548;2023-06-10T12:44:30;4.77;;;4.40;;
3433;SDS011;1730;41.932;25.548;2023-06-10T12:46:57;6.43;;;4.50;;
3433;SDS011;1730;41.932;25.548;2023-06-10T12:49:22;5.57;;;5.07;;
3433;SDS011;1730;41.932;25.548;2023-06-10T12:51:48;5.30;;;4.57;;
3433;SDS011;1730;41.932;25.548;2023-06-10T12:54:14;5.00;;;4.60;;
3433;SDS011;1730;41.932;25.548;2023-06-10T12:56:40;6.80;;;5.70;;
3433;SDS011;1730;41.932;25.548;2023-06-10T12:59:05;5.50;;;4.70;;
3433;SDS011;1730;41.932;25.548;2023-06-10T13:01:31;4.90;;;4.50;;
3433;SDS011;1730;41.932;25.548;2023-06-10T13:03:57;5.47;;;4.80;;
3433;SDS011;1730;41.932;25.548;2023-06-10T13:06:23;4.67;;;4.27;;
3433;SDS011;1730;41.932;25.548;2023-06-10T13:08:48;4.50;;;4.20;;
3433;SDS011;1730;41.932;25.548;2023-06-10T13:11:16;5.10;;;4.17;;
3433;SDS011;1730;41.932;25.548;2023-06-10T13:13:42;4.50;;;4.10;;
3433;SDS011;1730;41.932;25.548;2023-06-10T13:16:08;4.03;;;3.73;;
3433;SDS011;1730;41.932;25.548;2023-06-10T13:18:33;6.20;;;3.90;;
3433;SDS011;1730;41.932;25.548;2023-06-10T13:21:05;3.90;;;3.60;;
3433;SDS011;1730;41.932;25.548;2023-06-10T13:23:31;5.23;;;3.50;;
3433;SDS011;1730;41.932;25.548;2023-06-10T13:25:57;3.83;;;3.63;;
3433;SDS011;1730;41.932;25.548;2023-06-10T13:28:23;4.17;;;3.77;;
3433;SDS011;1730;41.932;25.548;2023-06-10T13:30:48;4.00;;;3.80;;
3433;SDS011;1730;41.932;25.548;2023-06-10T13:33:15;3.93;;;3.70;;
3433;SDS011;1730;41.932;25.548;2023-06-10T13:35:41;5.10;;;4.63;;
3433;SDS011;1730;41.932;25.548;2023-06-10T13:38:06;5.37;;;4.10;;
3433;SDS011;1730;41.932;25.548;2023-06-10T13:40:32;5.07;;;3.80;;
3433;SDS011;1730;41.932;25.548;2023-06-10T13:42:58;4.30;;;3.77;;
3433;SDS011;1730;41.932;25.548;2023-06-10T13:45:24;4.10;;;3.80;;
3433;SDS011;1730;41.932;25.548;2023-06-10T13:47:50;3.53;;;3.27;;
3433;SDS011;1730;41.932;25.548;2023-06-10T13:50:16;4.40;;;4.00;;
3433;SDS011;1730;41.932;25.548;2023-06-10T13:52:42;4.60;;;4.27;;
3433;SDS011;1730;41.932;25.548;2023-06-10T13:55:07;4.00;;;3.70;;
3433;SDS011;1730;41.932;25.548;2023-06-10T13:57:34;3.80;;;3.60;;
3433;SDS011;1730;41.932;25.548;2023-06-10T13:59:59;4.07;;;3.53;;
3433;SDS011;1730;41.932;25.548;2023-06-10T14:02:25;3.93;;;3.63;;
3433;SDS011;1730;41.932;25.548;2023-06-10T14:04:50;4.40;;;3.90;;
3433;SDS011;1730;41.932;25.548;2023-06-10T14:07:16;4.23;;;3.77;;
3433;SDS011;1730;41.932;25.548;2023-06-10T14:09:42;4.20;;;3.80;;
3433;SDS011;1730;41.932;25.548;2023-06-10T14:12:07;4.23;;;3.93;;
3433;SDS011;1730;41.932;25.548;2023-06-10T14:14:34;3.50;;;3.20;;
3433;SDS011;1730;41.932;25.548;2023-06-10T14:17:00;6.90;;;4.13;;
3433;SDS011;1730;41.932;25.548;2023-06-10T14:19:25;6.60;;;4.60;;
3433;SDS011;1730;41.932;25.548;2023-06-10T14:21:51;5.00;;;4.60;;
3433;SDS011;1730;41.932;25.548;2023-06-10T14:24:18;4.70;;;4.30;;
3433;SDS011;1730;41.932;25.548;2023-06-10T14:26:43;4.87;;;4.10;;
3433;SDS011;1730;41.932;25.548;2023-06-10T14:29:09;4.30;;;4.00;;
3433;SDS011;1730;41.932;25.548;2023-06-10T14:31:35;6.80;;;5.00;;
3433;SDS011;1730;41.932;25.548;2023-06-10T14:34:00;5.43;;;4.60;;
3433;SDS011;1730;41.932;25.548;2023-06-10T14:36:26;4.30;;;3.90;;
3433;SDS011;1730;41.932;25.548;2023-06-10T14:38:51;7.13;;;4.23;;
3433;SDS011;1730;41.932;25.548;2023-06-10T14:41:17;4.50;;;4.20;;
3433;SDS011;1730;41.932;25.548;2023-06-10T14:43:43;4.13;;;3.90;;
3433;SDS011;1730;41.932;25.548;2023-06-10T14:46:08;4.03;;;3.70;;
3433;SDS011;1730;41.932;25.548;2023-06-10T14:48:34;3.97;;;3.67;;
3433;SDS011;1730;41.932;25.548;2023-06-10T14:50:59;3.80;;;3.60;;
3433;SDS011;1730;41.932;25.548;2023-06-10T14:53:25;4.60;;;3.67;;
3433;SDS011;1730;41.932;25.548;2023-06-10T14:55:50;4.30;;;4.00;;
3433;SDS011;1730;41.932;25.548;2023-06-10T14:58:16;3.50;;;3.30;;
3433;SDS011;1730;41.932;25.548;2023-06-10T15:00:41;4.57;;;3.70;;
3433;SDS011;1730;41.932;25.548;2023-06-10T15:03:07;3.83;;;3.53;;
3433;SDS011;1730;41.932;25.548;2023-06-10T15:05:33;3.77;;;3.53;;
3433;SDS011;1730;41.932;25.548;2023-06-10T15:08:00;4.13;;;3.83;;
3433;SDS011;1730;41.932;25.548;2023-06-10T15:10:26;4.03;;;3.67;;
3433;SDS011;1730;41.932;25.548;2023-06-10T15:12:51;4.13;;;3.30;;
3433;SDS011;1730;41.932;25.548;2023-06-10T15:15:24;4.67;;;4.27;;
3433;SDS011;1730;41.932;25.548;2023-06-10T15:17:50;4.63;;;3.90;;
3433;SDS011;1730;41.932;25.548;2023-06-10T15:20:17;3.50;;;3.30;;
3433;SDS011;1730;41.932;25.548;2023-06-10T15:22:43;3.20;;;3.00;;